Time;durP1;ratioP1;P1;durP2;ratioP2;P2;SDS_P1;SDS_P2;PMS_P1;PMS_P2;Temp;Humidity;BMP_temperature;BMP_pressure;BME280_temperature;BME280_humidity;BME280_pressure;Samples;Min_cycle;Max_cycle;Signal;HPM_P1;HPM_P2
2024/03/22 00:02:11;;;;;;;28.70;16.33;;;9.30;99.90;;;;;;4967011;28;20039;-83
2024/03/22 00:04:38;;;;;;;28.60;17.33;;;9.30;99.90;;;;;;4963956;29;20066;-83
2024/03/22 00:07:04;;;;;;;28.48;16.15;;;9.50;99.90;;;;;;4958390;29;20047;-83
2024/03/22 00:09:31;;;;;;;25.00;16.20;;;9.40;99.90;;;;;;4974599;29;20042;-83
2024/03/22 00:11:58;;;;;;;25.75;16.25;;;9.40;99.90;;;;;;4963208;28;20027;-83
2024/03/22 00:14:25;;;;;;;28.20;16.88;;;9.40;99.90;;;;;;4967385;29;20039;-83
2024/03/22 00:16:51;;;;;;;28.35;15.98;;;9.30;99.90;;;;;;4961310;28;20440;-83
2024/03/22 00:19:18;;;;;;;28.10;16.65;;;9.40;99.90;;;;;;4979553;29;20066;-83
2024/03/22 00:21:45;;;;;;;28.20;17.45;;;9.40;99.90;;;;;;4962290;28;20035;-83
2024/03/22 00:24:11;;;;;;;24.85;15.85;;;9.70;99.90;;;;;;4964573;28;20042;-83
2024/03/22 00:26:38;;;;;;;31.30;17.77;;;9.50;99.90;;;;;;4950759;29;20050;-83
2024/03/22 00:29:04;;;;;;;26.88;16.80;;;9.50;99.90;;;;;;4960770;29;20401;-83
2024/03/22 00:31:31;;;;;;;30.55;17.10;;;9.40;99.90;;;;;;4957943;29;20057;-84
2024/03/22 00:33:58;;;;;;;30.63;17.92;;;9.40;99.90;;;;;;4973579;29;20037;-83
2024/03/22 00:36:24;;;;;;;28.75;16.80;;;10.30;99.90;;;;;;4957621;29;20077;-83
2024/03/22 00:38:51;;;;;;;29.85;16.70;;;9.50;99.90;;;;;;4947714;29;20046;-83
2024/03/22 00:41:18;;;;;;;30.48;17.35;;;9.40;99.90;;;;;;4957846;29;20047;-84
2024/03/22 00:43:44;;;;;;;28.83;18.40;;;9.80;99.90;;;;;;4958016;29;20489;-83
2024/03/22 00:46:11;;;;;;;29.70;17.35;;;9.50;99.90;;;;;;4957780;29;20050;-83
2024/03/22 00:48:38;;;;;;;33.28;17.50;;;9.50;99.90;;;;;;4952073;28;20413;-84
2024/03/22 00:51:04;;;;;;;26.88;16.90;;;9.50;99.90;;;;;;4943258;28;20069;-83
2024/03/22 00:53:31;;;;;;;30.08;18.23;;;9.50;99.90;;;;;;4957386;29;20061;-83
2024/03/22 00:55:59;;;;;;;34.60;18.35;;;9.50;99.90;;;;;;4961965;29;20050;-83
2024/03/22 00:58:29;;;;;;;31.55;18.90;;;9.50;99.90;;;;;;4961149;29;20047;-84
2024/03/22 01:00:56;;;;;;;36.45;19.15;;;9.50;99.90;;;;;;4969119;29;20039;-83
2024/03/22 01:03:23;;;;;;;31.80;18.25;;;9.50;99.90;;;;;;4957089;29;20043;-83
2024/03/22 01:05:50;;;;;;;34.35;19.00;;;9.50;99.90;;;;;;4963207;29;20655;-83
2024/03/22 01:08:16;;;;;;;32.97;19.15;;;9.50;99.90;;;;;;4938222;29;20078;-83
2024/03/22 01:10:43;;;;;;;36.17;20.42;;;9.50;99.90;;;;;;4972155;29;20047;-83
2024/03/22 01:13:09;;;;;;;32.53;18.77;;;10.00;99.90;;;;;;4972944;29;20039;-83
2024/03/22 01:15:36;;;;;;;34.65;19.98;;;9.60;99.90;;;;;;4959116;28;20163;-83
2024/03/22 01:18:03;;;;;;;34.25;18.80;;;9.70;99.90;;;;;;4967595;29;20063;-83
2024/03/22 01:20:30;;;;;;;34.28;19.98;;;9.50;99.90;;;;;;4979812;29;20101;-84
2024/03/22 01:22:56;;;;;;;33.45;19.33;;;9.60;99.90;;;;;;4957145;29;20047;-83
2024/03/22 01:25:23;;;;;;;34.45;20.23;;;9.70;99.90;;;;;;4959875;28;20049;-83
2024/03/22 01:27:49;;;;;;;36.50;21.45;;;9.60;99.90;;;;;;4957414;28;20070;-83
2024/03/22 01:30:16;;;;;;;34.97;19.83;;;9.60;99.90;;;;;;4962366;28;20129;-83
2024/03/22 01:32:43;;;;;;;39.58;21.10;;;9.50;99.90;;;;;;4961395;29;20035;-83
2024/03/22 01:35:10;;;;;;;38.33;20.27;;;9.60;99.90;;;;;;4956671;29;20035;-83
2024/03/22 01:37:36;;;;;;;39.58;21.10;;;9.60;99.90;;;;;;4961798;29;20035;-83
2024/03/22 01:40:06;;;;;;;40.67;20.98;;;9.60;99.90;;;;;;4954886;29;20043;-83
2024/03/22 01:42:33;;;;;;;37.75;21.92;;;9.60;99.90;;;;;;4943311;29;20130;-83
2024/03/22 01:45:00;;;;;;;38.70;22.58;;;9.60;99.90;;;;;;4949225;29;20122;-83
2024/03/22 01:47:26;;;;;;;42.65;21.95;;;9.80;99.90;;;;;;4958261;29;20126;-83
2024/03/22 01:49:55;;;;;;;39.17;21.75;;;9.60;99.90;;;;;;4956648;29;20130;-83
2024/03/22 01:52:22;;;;;;;39.15;21.80;;;9.60;99.90;;;;;;4980794;28;20066;-83
2024/03/22 01:54:49;;;;;;;40.50;22.25;;;9.70;99.90;;;;;;4960504;29;20047;-83
2024/03/22 01:57:16;;;;;;;41.15;22.75;;;9.70;99.90;;;;;;4972337;29;20074;-83
2024/03/22 01:59:43;;;;;;;44.20;23.88;;;9.70;99.90;;;;;;4974125;29;20527;-83
2024/03/22 02:02:11;;;;;;;39.92;22.83;;;10.20;99.90;;;;;;4946078;29;20413;-83
2024/03/22 02:04:37;;;;;;;44.88;22.40;;;9.60;99.90;;;;;;4953180;29;20047;-83
2024/03/22 02:07:04;;;;;;;45.58;23.75;;;9.70;99.90;;;;;;4956229;29;20047;-83
2024/03/22 02:09:31;;;;;;;43.22;22.25;;;9.70;99.90;;;;;;4945305;29;20043;-83
2024/03/22 02:11:58;;;;;;;42.53;23.63;;;9.70;99.90;;;;;;4956164;29;20043;-83
2024/03/22 02:14:25;;;;;;;41.92;23.92;;;9.80;99.90;;;;;;4961883;28;20079;-83
2024/03/22 02:16:52;;;;;;;45.95;23.65;;;9.80;99.90;;;;;;4945263;28;20113;-84
2024/03/22 02:19:18;;;;;;;44.28;23.70;;;9.80;99.90;;;;;;4957817;29;20054;-83
2024/03/22 02:21:45;;;;;;;45.40;23.90;;;9.80;99.90;;;;;;4956181;29;20445;-83
2024/03/22 02:24:12;;;;;;;43.42;23.48;;;9.80;99.90;;;;;;4945508;29;20075;-83
2024/03/22 02:26:38;;;;;;;46.22;26.05;;;9.90;99.90;;;;;;4955752;29;20050;-83
2024/03/22 02:29:05;;;;;;;43.13;23.52;;;9.80;99.90;;;;;;4958467;29;20706;-83
2024/03/22 02:31:32;;;;;;;48.30;25.17;;;9.90;99.90;;;;;;4946467;29;20036;-83
2024/03/22 02:33:59;;;;;;;53.30;25.67;;;9.90;99.90;;;;;;4958796;29;20039;-83
2024/03/22 02:36:26;;;;;;;45.80;24.05;;;9.90;99.90;;;;;;4971537;29;20062;-84
2024/03/22 02:38:53;;;;;;;48.55;25.50;;;9.90;99.90;;;;;;4975322;29;20047;-84
2024/03/22 02:41:21;;;;;;;46.05;24.42;;;9.90;99.90;;;;;;4955536;29;20054;-83
2024/03/22 02:43:47;;;;;;;48.50;25.15;;;9.90;99.90;;;;;;4959383;29;20480;-83
2024/03/22 02:46:14;;;;;;;47.55;25.08;;;10.00;99.90;;;;;;4960452;29;20131;-83
2024/03/22 02:48:40;;;;;;;48.13;24.75;;;10.20;99.90;;;;;;4976901;28;20043;-83
2024/03/22 02:51:07;;;;;;;49.90;25.00;;;10.00;99.90;;;;;;4979263;29;20053;-83
2024/03/22 02:53:34;;;;;;;51.15;26.55;;;10.00;99.90;;;;;;4955387;29;20489;-83
2024/03/22 02:56:01;;;;;;;46.78;25.02;;;10.00;99.90;;;;;;4959633;29;20039;-83
2024/03/22 02:58:30;;;;;;;51.95;26.23;;;10.10;99.90;;;;;;4955780;29;20050;-83
2024/03/22 03:00:57;;;;;;;52.28;26.77;;;10.70;99.90;;;;;;4947188;29;20453;-83
2024/03/22 03:03:23;;;;;;;46.78;24.58;;;10.10;99.90;;;;;;4962067;29;20134;-83
2024/03/22 03:05:50;;;;;;;48.60;26.85;;;10.20;99.90;;;;;;4955062;29;20496;-83
2024/03/22 03:08:17;;;;;;;49.30;25.50;;;10.10;99.90;;;;;;4967222;29;20198;-83
2024/03/22 03:10:45;;;;;;;49.55;26.00;;;10.20;99.90;;;;;;4952119;29;20517;-83
2024/03/22 03:13:12;;;;;;;51.88;25.38;;;10.20;99.90;;;;;;4971595;29;20428;-83
2024/03/22 03:15:38;;;;;;;57.88;26.15;;;10.20;99.90;;;;;;4951700;29;20050;-83
2024/03/22 03:18:05;;;;;;;52.03;26.20;;;10.40;99.90;;;;;;4952963;29;20043;-83
2024/03/22 03:20:31;;;;;;;49.92;26.55;;;10.20;99.90;;;;;;4951799;29;20043;-83
2024/03/22 03:22:59;;;;;;;54.42;26.20;;;10.20;99.90;;;;;;4964183;28;20031;-83
2024/03/22 03:25:26;;;;;;;52.72;27.10;;;10.10;99.90;;;;;;4957561;28;20050;-83
2024/03/22 03:27:53;;;;;;;51.42;26.80;;;10.20;99.90;;;;;;4961354;29;20043;-82
2024/03/22 03:30:19;;;;;;;51.85;25.63;;;10.30;99.90;;;;;;4952617;29;20040;-83
2024/03/22 03:32:46;;;;;;;52.45;28.10;;;10.20;99.90;;;;;;4958967;29;20079;-83
2024/03/22 03:35:13;;;;;;;53.90;27.30;;;10.10;99.90;;;;;;4958839;29;20042;-83
2024/03/22 03:37:39;;;;;;;55.15;27.83;;;10.10;99.90;;;;;;4959365;29;20400;-83
2024/03/22 03:40:07;;;;;;;56.42;27.50;;;10.10;99.90;;;;;;4967385;28;20102;-83
2024/03/22 03:42:33;;;;;;;54.75;27.23;;;10.10;99.90;;;;;;4958429;29;20042;-83
2024/03/22 03:45:00;;;;;;;50.65;26.55;;;10.10;99.90;;;;;;4969204;28;20123;-84
2024/03/22 03:47:27;;;;;;;55.55;26.90;;;10.10;99.90;;;;;;4962960;28;20043;-83
2024/03/22 03:49:53;;;;;;;57.78;28.67;;;10.10;99.90;;;;;;4967081;29;20043;-84
2024/03/22 03:52:20;;;;;;;54.75;28.45;;;10.10;99.90;;;;;;4960093;29;20404;-83
2024/03/22 03:54:46;;;;;;;51.83;27.63;;;10.10;99.90;;;;;;4978345;29;20078;-83
2024/03/22 03:57:13;;;;;;;54.97;28.35;;;10.10;99.90;;;;;;4959840;29;20035;-83
2024/03/22 03:59:40;;;;;;;53.28;27.40;;;10.10;99.90;;;;;;4958919;29;20071;-83
2024/03/22 04:02:06;;;;;;;58.60;28.17;;;10.10;99.90;;;;;;4960237;28;20043;-83
2024/03/22 04:04:33;;;;;;;55.80;28.08;;;10.20;99.90;;;;;;4960931;28;20095;-83
2024/03/22 04:07:00;;;;;;;51.00;26.52;;;10.10;99.90;;;;;;4965039;29;20444;-83
2024/03/22 04:09:26;;;;;;;54.80;27.88;;;10.10;99.90;;;;;;4958289;29;20130;-83
2024/03/22 04:11:53;;;;;;;57.40;27.90;;;10.10;99.90;;;;;;4967329;29;20075;-83
2024/03/22 04:14:19;;;;;;;57.33;29.05;;;10.20;99.90;;;;;;4954935;28;20038;-83
2024/03/22 04:16:46;;;;;;;58.80;28.75;;;10.10;99.90;;;;;;4976934;28;20043;-83
2024/03/22 04:19:13;;;;;;;57.42;28.17;;;10.20;99.90;;;;;;4959345;29;20051;-83
2024/03/22 04:21:39;;;;;;;58.85;28.38;;;10.20;99.90;;;;;;4990049;28;20047;-83
2024/03/22 04:24:06;;;;;;;53.67;27.75;;;10.20;99.90;;;;;;4972496;28;20054;-83
2024/03/22 04:26:32;;;;;;;59.30;27.80;;;10.20;99.90;;;;;;4966993;29;20490;-83
2024/03/22 04:28:59;;;;;;;58.30;27.52;;;10.20;99.90;;;;;;4974323;29;20051;-83
2024/03/22 04:31:26;;;;;;;53.95;26.67;;;10.40;99.90;;;;;;4954265;29;20067;-83
2024/03/22 04:33:52;;;;;;;56.30;28.50;;;10.20;99.90;;;;;;4962807;28;20039;-84
2024/03/22 04:36:19;;;;;;;61.85;28.38;;;10.20;99.90;;;;;;4958568;29;20043;-83
2024/03/22 04:38:45;;;;;;;58.85;28.15;;;10.20;99.90;;;;;;4967904;28;20043;-83
2024/03/22 04:41:12;;;;;;;54.15;27.48;;;10.20;99.90;;;;;;4967915;29;20054;-83
2024/03/22 04:43:39;;;;;;;58.90;28.98;;;10.60;99.90;;;;;;4957493;28;20489;-84
2024/03/22 04:46:05;;;;;;;59.90;27.40;;;10.70;99.90;;;;;;4964966;28;20134;-84
2024/03/22 04:48:32;;;;;;;55.63;27.50;;;10.20;99.90;;;;;;4971746;29;20048;-83
2024/03/22 04:50:59;;;;;;;57.95;28.73;;;10.60;99.90;;;;;;4949038;29;20445;-83
2024/03/22 04:53:25;;;;;;;57.50;28.90;;;10.90;99.90;;;;;;4984758;29;20095;-83
2024/03/22 04:55:52;;;;;;;60.38;28.67;;;10.30;99.90;;;;;;4957682;29;20045;-83
2024/03/22 04:58:20;;;;;;;53.70;26.73;;;10.30;99.90;;;;;;4960145;29;20054;-83
2024/03/22 05:00:57;;;;;;;56.47;27.30;;;10.30;99.90;;;;;;4959763;29;20127;-83
2024/03/22 05:03:23;;;;;;;62.28;29.45;;;10.30;99.90;;;;;;4945034;29;20094;-83
2024/03/22 05:05:50;;;;;;;51.63;27.77;;;10.20;99.90;;;;;;4954364;29;20500;-83
2024/03/22 05:08:17;;;;;;;53.33;28.20;;;10.80;99.90;;;;;;4959885;29;20054;-83
2024/03/22 05:10:44;;;;;;;52.33;27.52;;;10.20;99.90;;;;;;4954108;29;20045;-83
2024/03/22 05:13:10;;;;;;;59.40;28.27;;;10.30;99.90;;;;;;4960185;29;20043;-83
2024/03/22 05:15:37;;;;;;;54.28;26.83;;;10.20;99.90;;;;;;4953327;29;20043;-83
2024/03/22 05:18:04;;;;;;;58.40;29.02;;;10.20;99.90;;;;;;4957310;29;20054;-83
2024/03/22 05:20:31;;;;;;;55.70;27.55;;;10.20;99.90;;;;;;4961821;28;20046;-84
2024/03/22 05:22:57;;;;;;;53.95;26.45;;;10.20;99.90;;;;;;4978187;28;20484;-84
2024/03/22 05:25:25;;;;;;;53.00;26.38;;;10.20;99.90;;;;;;4964535;28;20031;-83
2024/03/22 05:27:52;;;;;;;51.60;26.65;;;10.20;99.90;;;;;;4964474;28;20038;-84
2024/03/22 05:30:19;;;;;;;53.92;26.42;;;10.20;99.90;;;;;;4970096;28;20042;-83
2024/03/22 05:32:45;;;;;;;60.17;27.80;;;10.50;99.90;;;;;;4962250;28;20421;-84
2024/03/22 05:35:12;;;;;;;54.55;26.35;;;10.30;99.90;;;;;;4958789;29;20045;-83
2024/03/22 05:37:39;;;;;;;53.13;24.95;;;10.20;99.90;;;;;;4938398;29;20036;-82
2024/03/22 05:40:07;;;;;;;52.58;25.33;;;10.20;99.90;;;;;;4965187;28;20077;-83
2024/03/22 05:42:33;;;;;;;53.40;24.67;;;10.30;99.90;;;;;;4971596;29;20046;-83
2024/03/22 05:45:00;;;;;;;54.58;25.90;;;10.30;99.90;;;;;;4960003;29;20031;-84
2024/03/22 05:47:26;;;;;;;54.15;24.85;;;10.20;99.90;;;;;;4959754;28;20035;-83
2024/03/22 05:49:53;;;;;;;57.58;24.38;;;10.30;99.90;;;;;;4964584;29;20039;-83
2024/03/22 05:52:20;;;;;;;51.90;23.10;;;10.30;99.90;;;;;;4947705;29;20408;-83
2024/03/22 05:54:46;;;;;;;52.08;23.52;;;10.30;99.90;;;;;;4941653;28;20040;-83
2024/03/22 05:57:13;;;;;;;56.08;24.90;;;10.30;99.90;;;;;;4966255;29;20452;-83
2024/03/22 05:59:40;;;;;;;47.90;22.55;;;10.30;99.90;;;;;;4952943;29;20413;-83
2024/03/22 06:02:07;;;;;;;49.38;24.20;;;10.30;99.90;;;;;;4976755;28;20049;-84
2024/03/22 06:04:34;;;;;;;55.45;23.35;;;10.30;99.90;;;;;;4959206;29;20108;-84
2024/03/22 06:07:03;;;;;;;47.78;23.23;;;10.20;99.90;;;;;;4959643;28;20129;-84
2024/03/22 06:09:45;;;;;;;52.72;24.52;;;10.20;99.90;;;;;;4960670;28;20120;-83
2024/03/22 06:12:13;;;;;;;56.97;24.08;;;10.20;99.90;;;;;;4983566;28;20081;-83
2024/03/22 06:14:40;;;;;;;49.35;22.10;;;10.10;99.90;;;;;;4959615;29;20043;-83
2024/03/22 06:17:07;;;;;;;52.03;24.10;;;10.00;99.90;;;;;;4955819;29;20050;-83
2024/03/22 06:19:34;;;;;;;55.75;23.67;;;10.00;99.90;;;;;;4963983;28;20039;-83
2024/03/22 06:22:02;;;;;;;48.38;21.65;;;10.00;99.90;;;;;;4971143;28;20038;-83
2024/03/22 06:24:29;;;;;;;47.40;21.15;;;10.00;99.90;;;;;;4964937;29;20050;-83
2024/03/22 06:26:56;;;;;;;47.33;22.50;;;10.00;99.90;;;;;;4952436;29;20031;-83
2024/03/22 06:29:22;;;;;;;50.80;21.65;;;10.00;99.90;;;;;;4948219;29;20067;-83
2024/03/22 06:31:50;;;;;;;44.72;21.15;;;10.00;99.90;;;;;;4977101;29;20041;-83
2024/03/22 06:34:16;;;;;;;44.90;21.10;;;9.90;99.90;;;;;;4957668;29;20042;-83
2024/03/22 06:36:43;;;;;;;43.17;20.83;;;10.00;99.90;;;;;;4948785;29;20039;-83
2024/03/22 06:39:10;;;;;;;44.33;20.75;;;9.90;99.90;;;;;;4960566;28;20035;-84
2024/03/22 06:41:37;;;;;;;44.72;21.05;;;9.90;99.90;;;;;;4962371;29;20075;-84
2024/03/22 06:44:04;;;;;;;51.70;21.92;;;10.70;99.90;;;;;;4961839;29;20074;-83
2024/03/22 06:46:31;;;;;;;46.08;20.13;;;9.90;99.90;;;;;;4955226;29;20043;-83
2024/03/22 06:48:58;;;;;;;42.13;19.83;;;9.90;99.90;;;;;;4978454;28;20038;-83
2024/03/22 06:51:24;;;;;;;44.58;20.85;;;9.90;99.90;;;;;;4960934;29;20415;-84
2024/03/22 06:53:51;;;;;;;45.38;20.30;;;9.80;99.90;;;;;;4971527;29;20047;-83
2024/03/22 06:56:18;;;;;;;42.55;20.25;;;9.80;99.90;;;;;;4963902;28;20053;-84
2024/03/22 06:58:44;;;;;;;41.15;20.63;;;9.80;99.90;;;;;;4968297;28;20117;-84
2024/03/22 07:01:11;;;;;;;48.35;20.02;;;10.30;99.90;;;;;;4955865;29;20090;-84
2024/03/22 07:03:37;;;;;;;48.17;20.73;;;10.00;99.90;;;;;;4955980;29;20047;-83
2024/03/22 07:06:07;;;;;;;44.97;20.70;;;10.10;99.90;;;;;;4954826;28;20047;-84
2024/03/22 07:08:33;;;;;;;45.05;20.95;;;9.80;99.90;;;;;;4964808;29;20635;-83
2024/03/22 07:11:05;;;;;;;45.72;21.83;;;10.10;99.90;;;;;;4959988;28;20126;-83
2024/03/22 07:13:32;;;;;;;48.58;22.33;;;9.80;99.90;;;;;;4965877;29;20044;-85
2024/03/22 07:18:59;;;;;;;50.42;23.95;;;9.80;99.90;;;;;;4964263;28;20154;-84
2024/03/22 07:21:25;;;;;;;54.58;24.77;;;9.80;99.90;;;;;;4936264;29;20545;-84
2024/03/22 07:23:52;;;;;;;56.92;25.60;;;9.80;99.90;;;;;;4963652;29;20051;-84
2024/03/22 07:26:19;;;;;;;60.08;27.95;;;9.80;99.90;;;;;;4941395;29;20044;-84
2024/03/22 07:28:45;;;;;;;53.15;26.48;;;9.80;99.90;;;;;;4945045;29;20493;-84
2024/03/22 07:31:12;;;;;;;58.85;26.63;;;9.90;99.90;;;;;;4964016;29;20056;-84
2024/03/22 07:33:39;;;;;;;47.60;25.10;;;10.20;99.90;;;;;;4945443;29;20409;-85
2024/03/22 07:36:07;;;;;;;48.05;23.17;;;9.80;99.90;;;;;;4944270;29;20038;-85
2024/03/22 07:38:33;;;;;;;46.08;22.15;;;9.80;99.90;;;;;;4946576;29;20067;-85
2024/03/22 07:41:00;;;;;;;42.60;22.70;;;9.80;99.90;;;;;;4947577;29;20036;-85
2024/03/22 07:43:27;;;;;;;44.17;20.10;;;9.80;99.90;;;;;;4941258;29;20137;-85
2024/03/22 07:45:54;;;;;;;35.40;17.77;;;9.80;99.90;;;;;;4957201;29;20047;-84
2024/03/22 07:48:20;;;;;;;33.25;15.80;;;10.50;99.90;;;;;;4957024;29;20500;-84
2024/03/22 07:50:59;;;;;;;32.17;14.75;;;9.80;99.90;;;;;;4954994;29;20031;-85
2024/03/22 07:53:25;;;;;;;30.20;14.57;;;9.80;99.90;;;;;;4941444;29;20036;-85
2024/03/22 07:55:52;;;;;;;31.88;14.35;;;9.80;99.90;;;;;;4951063;29;20046;-85
2024/03/22 07:58:20;;;;;;;31.08;13.80;;;9.80;99.90;;;;;;4958085;28;20072;-84
2024/03/22 08:00:47;;;;;;;34.13;14.10;;;10.00;99.90;;;;;;4952865;29;20047;-84
2024/03/22 08:03:17;;;;;;;29.20;13.82;;;10.60;99.90;;;;;;4952009;29;20057;-84
2024/03/22 08:05:44;;;;;;;30.58;13.10;;;9.80;99.90;;;;;;4958075;29;20500;-84
2024/03/22 08:08:10;;;;;;;28.73;13.82;;;9.80;99.90;;;;;;4958150;29;20043;-84
2024/03/22 08:10:37;;;;;;;29.40;14.02;;;9.90;99.90;;;;;;4963584;29;20484;-84
2024/03/22 08:13:04;;;;;;;32.17;13.90;;;9.80;99.90;;;;;;4965620;28;20027;-84
2024/03/22 08:15:31;;;;;;;29.02;13.23;;;9.80;99.90;;;;;;4956577;29;20035;-84
2024/03/22 08:17:57;;;;;;;33.15;15.02;;;9.80;99.90;;;;;;4961140;29;20039;-84
2024/03/22 08:20:24;;;;;;;32.58;14.40;;;9.80;99.90;;;;;;4966027;29;20493;-84
2024/03/22 08:22:51;;;;;;;37.08;14.13;;;9.80;99.90;;;;;;4955988;29;20043;-84
2024/03/22 08:25:20;;;;;;;31.45;14.27;;;9.90;99.90;;;;;;4949312;29;20047;-86
2024/03/22 08:27:47;;;;;;;28.48;13.57;;;10.10;99.90;;;;;;4958036;29;20039;-83
2024/03/22 08:30:14;;;;;;;35.05;14.02;;;9.80;99.90;;;;;;4953566;29;20035;-83
2024/03/22 08:32:43;;;;;;;30.13;11.93;;;9.80;99.90;;;;;;4959635;28;20070;-83
2024/03/22 08:35:10;;;;;;;25.25;13.02;;;9.80;99.90;;;;;;4954338;29;20462;-83
2024/03/22 08:37:37;;;;;;;27.88;12.57;;;9.80;99.90;;;;;;4957575;28;20069;-83
2024/03/22 08:40:04;;;;;;;28.33;13.10;;;9.80;99.90;;;;;;4948923;29;20048;-83
2024/03/22 08:42:31;;;;;;;27.05;12.05;;;9.80;99.90;;;;;;4959920;29;20090;-84
2024/03/22 08:44:57;;;;;;;26.30;12.68;;;9.90;99.90;;;;;;4967384;28;20534;-94
2024/03/22 08:47:24;;;;;;;29.15;13.65;;;10.00;99.90;;;;;;4940308;29;20040;-94
2024/03/22 08:49:51;;;;;;;29.35;13.93;;;9.90;99.90;;;;;;4968517;28;20031;-89
2024/03/22 08:52:17;;;;;;;30.58;13.98;;;9.90;99.90;;;;;;4960553;29;20040;-89
2024/03/22 08:54:44;;;;;;;22.80;11.85;;;10.00;99.90;;;;;;4960228;29;20050;-89
2024/03/22 08:57:10;;;;;;;33.92;13.27;;;10.10;99.90;;;;;;4958554;28;20403;-89
2024/03/22 08:59:38;;;;;;;30.67;12.30;;;10.00;99.90;;;;;;4963913;28;20039;-89
2024/03/22 09:02:17;;;;;;;26.58;11.80;;;9.90;99.90;;;;;;4966797;29;20069;-89
2024/03/22 09:04:45;;;;;;;28.20;11.85;;;9.90;99.90;;;;;;4945941;29;20055;-89
2024/03/22 09:07:24;;;;;;;21.08;10.48;;;9.90;99.90;;;;;;4958151;29;20078;-89
2024/03/22 09:09:51;;;;;;;25.52;10.32;;;10.00;99.90;;;;;;4959836;28;20043;-89
2024/03/22 09:12:19;;;;;;;19.88;9.13;;;9.90;99.90;;;;;;4955168;28;20179;-89
2024/03/22 09:14:46;;;;;;;19.92;8.82;;;9.90;99.90;;;;;;4960629;29;20042;-89
2024/03/22 09:17:12;;;;;;;19.25;9.10;;;10.00;99.90;;;;;;4948356;29;20409;-89
2024/03/22 09:19:39;;;;;;;19.38;8.60;;;10.00;99.90;;;;;;4939291;29;20048;-89
2024/03/22 09:22:06;;;;;;;18.52;8.57;;;10.00;99.90;;;;;;4966955;29;20035;-89
2024/03/22 09:24:32;;;;;;;21.13;8.60;;;10.00;99.90;;;;;;4958680;29;20035;-89
2024/03/22 09:26:59;;;;;;;16.20;8.35;;;10.00;99.90;;;;;;4950545;29;20043;-89
2024/03/22 09:29:25;;;;;;;18.88;7.88;;;10.10;99.90;;;;;;4959473;29;20043;-89
2024/03/22 09:31:55;;;;;;;14.40;7.43;;;10.00;99.90;;;;;;4948619;29;20151;-88
2024/03/22 09:34:21;;;;;;;17.33;7.65;;;10.40;99.90;;;;;;4967735;29;20047;-89
2024/03/22 09:36:53;;;;;;;14.52;6.63;;;10.10;99.90;;;;;;4952150;29;20043;-89
2024/03/22 09:39:20;;;;;;;14.25;6.53;;;10.40;99.90;;;;;;4950505;29;20394;-89
2024/03/22 09:41:48;;;;;;;16.65;6.97;;;10.00;99.90;;;;;;4950995;29;20044;-89
2024/03/22 09:44:24;;;;;;;12.90;6.45;;;10.00;99.90;;;;;;4965831;29;20409;-89
2024/03/22 09:46:52;;;;;;;14.05;6.43;;;10.00;99.90;;;;;;4944410;29;20051;-88
2024/03/22 09:49:19;;;;;;;13.48;6.20;;;10.50;99.90;;;;;;4957556;29;20031;-89
2024/03/22 09:51:49;;;;;;;14.70;6.20;;;10.00;99.90;;;;;;4957442;29;20035;-89
2024/03/22 09:54:16;;;;;;;14.10;6.03;;;10.20;99.90;;;;;;4946694;29;20118;-89
2024/03/22 09:56:47;;;;;;;11.73;6.20;;;10.00;99.90;;;;;;4967307;28;20046;-88
2024/03/22 09:59:14;;;;;;;11.30;5.22;;;10.30;99.90;;;;;;4961482;29;20043;-89
2024/03/22 10:01:42;;;;;;;11.70;5.60;;;10.00;99.90;;;;;;4966737;29;20501;-88
2024/03/22 10:04:12;;;;;;;13.88;5.65;;;10.00;99.90;;;;;;4969749;28;20046;-88
2024/03/22 10:06:40;;;;;;;11.88;5.13;;;10.40;99.90;;;;;;4938070;29;20067;-89
2024/03/22 10:09:11;;;;;;;8.32;4.53;;;10.10;99.90;;;;;;4960141;28;20027;-89
2024/03/22 10:11:38;;;;;;;10.18;4.93;;;10.80;99.90;;;;;;4963054;29;20045;-89
2024/03/22 10:14:04;;;;;;;10.55;5.07;;;10.10;99.90;;;;;;4973147;29;20410;-89
2024/03/22 10:16:35;;;;;;;9.65;4.40;;;10.10;99.90;;;;;;4963199;28;20049;-89
2024/03/22 10:19:02;;;;;;;10.48;5.05;;;10.10;99.90;;;;;;4964859;29;20412;-88
2024/03/22 10:21:29;;;;;;;10.77;4.43;;;10.10;99.90;;;;;;4964094;28;20046;-88
2024/03/22 10:23:56;;;;;;;9.50;4.93;;;10.10;99.90;;;;;;4958483;28;20732;-88
2024/03/22 10:26:22;;;;;;;9.45;4.93;;;10.20;99.90;;;;;;4957400;29;20047;-89
2024/03/22 10:28:49;;;;;;;8.90;4.32;;;10.10;99.90;;;;;;4960970;29;20051;-89
2024/03/22 10:31:15;;;;;;;10.45;4.35;;;10.10;99.90;;;;;;4957357;29;20039;-89
2024/03/22 10:33:44;;;;;;;9.80;4.00;;;10.40;99.90;;;;;;4956482;29;20481;-89
2024/03/22 10:36:12;;;;;;;7.22;4.18;;;10.20;99.90;;;;;;4961378;29;20082;-89
2024/03/22 10:38:40;;;;;;;6.78;4.00;;;10.20;99.90;;;;;;4958007;28;20050;-89
2024/03/22 10:41:07;;;;;;;6.32;3.50;;;10.20;99.90;;;;;;4967829;28;20035;-89
2024/03/22 10:43:34;;;;;;;7.18;4.10;;;10.20;99.90;;;;;;4954896;29;20771;-89
2024/03/22 10:46:03;;;;;;;7.85;3.75;;;10.20;99.90;;;;;;4940644;29;20067;-89
2024/03/22 10:48:31;;;;;;;6.95;3.58;;;10.20;99.90;;;;;;4960003;28;20090;-89
2024/03/22 10:51:02;;;;;;;6.50;3.63;;;10.30;99.90;;;;;;4985773;28;20035;-89
2024/03/22 10:53:32;;;;;;;5.88;3.40;;;10.30;99.90;;;;;;4957322;29;20039;-89
2024/03/22 10:56:01;;;;;;;6.72;3.72;;;10.30;99.90;;;;;;4947258;29;20122;-88
2024/03/22 10:58:27;;;;;;;5.88;3.45;;;10.30;99.90;;;;;;4961915;28;20464;-89
2024/03/22 11:00:55;;;;;;;6.60;3.67;;;10.30;99.90;;;;;;4963887;29;20126;-89
2024/03/22 11:03:24;;;;;;;7.93;3.50;;;10.40;99.90;;;;;;4958001;28;20043;-89
2024/03/22 11:05:56;;;;;;;6.72;3.53;;;10.30;99.90;;;;;;4974589;29;20520;-88
2024/03/22 11:08:32;;;;;;;5.95;2.95;;;10.60;99.90;;;;;;4958125;28;20038;-89
2024/03/22 11:11:12;;;;;;;5.10;2.65;;;10.30;99.90;;;;;;4974056;28;20047;-88
2024/03/22 11:13:42;;;;;;;5.15;2.78;;;10.30;99.90;;;;;;4967207;28;20031;-88
2024/03/22 11:16:10;;;;;;;5.35;3.13;;;10.50;99.90;;;;;;4956988;29;20043;-89
2024/03/22 11:18:36;;;;;;;4.80;2.50;;;10.40;99.90;;;;;;4962797;29;20511;-88
2024/03/22 11:21:07;;;;;;;7.53;3.28;;;10.40;99.90;;;;;;4956420;28;20039;-88
2024/03/22 11:23:33;;;;;;;6.82;2.85;;;10.40;99.90;;;;;;4965250;29;20053;-88
2024/03/22 11:26:01;;;;;;;4.63;2.63;;;10.40;99.90;;;;;;4959631;29;20126;-88
2024/03/22 11:28:27;;;;;;;4.63;2.58;;;10.50;99.90;;;;;;4953074;29;20082;-88
2024/03/22 11:30:54;;;;;;;5.50;2.60;;;10.40;99.90;;;;;;4951319;29;20068;-88
2024/03/22 11:33:21;;;;;;;5.38;2.85;;;10.40;99.90;;;;;;4957497;29;20118;-90
2024/03/22 11:35:49;;;;;;;4.50;2.40;;;10.40;99.90;;;;;;4960884;29;20039;-88
2024/03/22 11:38:30;;;;;;;4.30;2.15;;;10.40;99.90;;;;;;4957748;29;20059;-89
2024/03/22 11:40:59;;;;;;;4.82;2.40;;;10.40;99.90;;;;;;4959186;29;20082;-88
2024/03/22 11:43:29;;;;;;;5.30;2.63;;;10.70;99.90;;;;;;4951034;28;20484;-88
2024/03/22 11:45:56;;;;;;;4.97;2.38;;;11.10;99.90;;;;;;4955930;29;20047;-90
2024/03/22 11:48:23;;;;;;;4.85;2.33;;;10.40;99.90;;;;;;4960779;28;20031;-89
2024/03/22 11:50:50;;;;;;;3.60;2.30;;;10.60;99.90;;;;;;4965069;28;20035;-88
2024/03/22 11:53:17;;;;;;;4.13;2.00;;;10.50;99.90;;;;;;4974067;28;20104;-88
2024/03/22 11:55:44;;;;;;;3.80;2.05;;;10.50;99.90;;;;;;4964791;29;20039;-89
2024/03/22 11:58:10;;;;;;;3.80;2.10;;;10.90;99.90;;;;;;4959473;29;20508;-89
2024/03/22 12:00:38;;;;;;;3.45;1.90;;;10.40;99.90;;;;;;4942149;29;20094;-89
2024/03/22 12:03:08;;;;;;;3.00;1.60;;;11.30;99.90;;;;;;4961912;28;20139;-89
2024/03/22 12:05:34;;;;;;;3.90;2.08;;;10.30;99.90;;;;;;4958978;29;20071;-89
2024/03/22 12:08:02;;;;;;;3.72;1.70;;;10.40;99.90;;;;;;4959868;29;20054;-90
2024/03/22 12:10:28;;;;;;;3.70;1.65;;;10.40;99.90;;;;;;4967455;28;20047;-89
2024/03/22 12:12:55;;;;;;;2.97;1.58;;;10.40;99.90;;;;;;4965348;29;20175;-89
2024/03/22 12:15:22;;;;;;;3.20;1.70;;;10.40;99.90;;;;;;4967836;29;20039;-89
2024/03/22 12:17:49;;;;;;;3.78;1.70;;;10.40;99.90;;;;;;4981415;28;20046;-90
2024/03/22 12:20:15;;;;;;;3.83;1.70;;;10.40;99.90;;;;;;4959394;29;20034;-89
2024/03/22 12:22:42;;;;;;;3.03;1.42;;;10.40;99.90;;;;;;4964485;29;20038;-90
2024/03/22 12:25:09;;;;;;;2.28;1.30;;;10.40;99.90;;;;;;4955508;29;20039;-90
2024/03/22 12:27:36;;;;;;;3.40;1.60;;;10.30;99.90;;;;;;4956900;29;20039;-90
2024/03/22 12:30:06;;;;;;;3.38;1.30;;;10.30;99.90;;;;;;4961235;28;20039;-91
2024/03/22 12:32:33;;;;;;;2.70;1.30;;;10.40;99.90;;;;;;4948580;29;20040;-89
2024/03/22 12:35:01;;;;;;;2.30;1.10;;;10.40;99.90;;;;;;4955641;29;20130;-89
2024/03/22 12:37:27;;;;;;;4.43;1.25;;;10.30;99.90;;;;;;4953551;28;20050;-89
2024/03/22 12:39:54;;;;;;;2.38;1.23;;;10.20;99.90;;;;;;4965080;28;20161;-89